Front Runner — 3FRP5 — position and weather

sailwx.info

Track history (hours):
 
Tides and Currents Weather Stations Pressure Air Temp Water Temp Dewpoint Dewpoint Depression Visibility Wind Speed Wind Dir Waves Ship Positions

Front Runner

Last reported at 2014-Sep-13 05:33 UTC. Time now 2014-Sep-18 23:46 UTC.
Position N 46°35' E 031°07'.

Length 190 m; draft 6.6 m.

Type: Cargo ship. MMSI: 357941000.

Date/timePositionNaut miles runAvg speedWind from/ knotsBaromVisibWave heightAir tempDewpointWater temp
2014-Sep-13 05:33N 46°35' E 031°07'0 0.0
2014-Sep-13 04:27N 46°35' E 031°07'0 0.0
2014-Sep-13 01:27N 46°35' E 031°07'0 0.0
2014-Sep-13 00:30N 46°35' E 031°07'0 0.0
2014-Sep-12 20:24N 46°35' E 031°08'0 0.0
2014-Sep-12 19:33N 46°35' E 031°08'0 0.0
2014-Sep-10 18:18N 46°35' E 031°08'0 0.0
2014-Sep-10 17:27N 46°35' E 031°08'0 0.0
2014-Sep-10 16:33N 46°35' E 031°08'19 0.9
2014-Sep-09 19:33N 46°18' E 030°57'1111.0
2014-Sep-09 18:33N 46°09' E 031°07'1111.1
2014-Sep-09 17:33N 45°58' E 031°10'6 5.3
2014-Sep-09 16:28N 45°53' E 031°10'1 0.6
2014-Sep-09 15:28N 45°52' E 031°09'1 0.5
2014-Sep-09 14:04N 45°52' E 031°08'109 9.5
2014-Sep-09 02:33N 44°09' E 030°18'16712.6
2014-Sep-08 13:16N 41°28' E 029°16'912.4
2014-Sep-08 12:34N 41°20' E 029°12'117 6.5
2014-Sep-07 18:33N 40°28' E 026°54'57 9.4
2014-Sep-07 12:33N 39°54' E 025°55'1312.1
2014-Sep-07 11:27N 39°43' E 025°45'58 7.9
2014-Sep-07 04:04N 38°45' E 025°55'2 0.0
2014-Sep-05 09:25N 38°44' E 025°53'1 0.8
2014-Sep-05 08:31N 38°44' E 025°52'3 0.4
2014-Sep-05 00:31N 38°47' E 025°50'0 0.4
2014-Sep-04 23:25N 38°48' E 025°50'0 0.5
2014-Sep-04 22:25N 38°48' E 025°51'1 0.6
2014-Sep-04 21:31N 38°48' E 025°51'1 0.7
2014-Sep-04 20:25N 38°49' E 025°52'1 0.8
2014-Sep-04 19:31N 38°50' E 025°52'1 1.1
2014-Sep-04 18:31N 38°51' E 025°52'16 8.2
2014-Sep-04 16:32N 38°48' E 026°13'  
Track history (hours):
 
Tides and Currents Weather Stations Pressure Air Temp Water Temp Dewpoint Dewpoint Depression Visibility Wind Speed Wind Dir Waves Ship Positions

Front Runner

Last reported at 2014-Sep-13 05:33 UTC. Time now 2014-Sep-18 23:46 UTC.
Position N 46°35' E 031°07'.

Length 190 m; draft 6.6 m.

Type: Cargo ship. MMSI: 357941000.

Date/timePositionNaut miles runAvg speedWind from/ knotsBaromVisibWave heightAir tempDewpointWater temp
2014-Sep-13 05:33N 46°35' E 031°07'0 0.0
2014-Sep-13 04:27N 46°35' E 031°07'0 0.0
2014-Sep-13 01:27N 46°35' E 031°07'0 0.0
2014-Sep-13 00:30N 46°35' E 031°07'0 0.0
2014-Sep-12 20:24N 46°35' E 031°08'0 0.0
2014-Sep-12 19:33N 46°35' E 031°08'0 0.0
2014-Sep-10 18:18N 46°35' E 031°08'0 0.0
2014-Sep-10 17:27N 46°35' E 031°08'0 0.0
2014-Sep-10 16:33N 46°35' E 031°08'19 0.9
2014-Sep-09 19:33N 46°18' E 030°57'1111.0
2014-Sep-09 18:33N 46°09' E 031°07'1111.1
2014-Sep-09 17:33N 45°58' E 031°10'6 5.3
2014-Sep-09 16:28N 45°53' E 031°10'1 0.6
2014-Sep-09 15:28N 45°52' E 031°09'1 0.5
2014-Sep-09 14:04N 45°52' E 031°08'109 9.5
2014-Sep-09 02:33N 44°09' E 030°18'16712.6
2014-Sep-08 13:16N 41°28' E 029°16'912.4
2014-Sep-08 12:34N 41°20' E 029°12'117 6.5
2014-Sep-07 18:33N 40°28' E 026°54'57 9.4
2014-Sep-07 12:33N 39°54' E 025°55'1312.1
2014-Sep-07 11:27N 39°43' E 025°45'58 7.9
2014-Sep-07 04:04N 38°45' E 025°55'2 0.0
2014-Sep-05 09:25N 38°44' E 025°53'1 0.8
2014-Sep-05 08:31N 38°44' E 025°52'3 0.4
2014-Sep-05 00:31N 38°47' E 025°50'0 0.4
2014-Sep-04 23:25N 38°48' E 025°50'0 0.5
2014-Sep-04 22:25N 38°48' E 025°51'1 0.6
2014-Sep-04 21:31N 38°48' E 025°51'1 0.7
2014-Sep-04 20:25N 38°49' E 025°52'1 0.8
2014-Sep-04 19:31N 38°50' E 025°52'1 1.1
2014-Sep-04 18:31N 38°51' E 025°52'16 8.2
2014-Sep-04 16:32N 38°48' E 026°13'  

Dump ship's entire track history